Time;durP1;ratioP1;P1;durP2;ratioP2;P2;SDS_P1;SDS_P2;PMS_P1;PMS_P2;Temp;Humidity;BMP_temperature;BMP_pressure;BME280_temperature;BME280_humidity;BME280_pressure;Samples;Min_cycle;Max_cycle;Signal;HPM_P1;HPM_P2
2021/04/04 00:01:08;;;;;;;23.40;6.47;;;5.80;75.30;;;;;;5049628;28;20037;-75
2021/04/04 00:03:33;;;;;;;25.13;6.43;;;5.80;75.60;;;;;;5049768;28;20094;-75
2021/04/04 00:06:00;;;;;;;21.43;6.43;;;5.80;75.80;;;;;;5050795;28;20045;-76
2021/04/04 00:08:25;;;;;;;23.27;6.50;;;5.80;75.90;;;;;;5050235;28;20071;-75
2021/04/04 00:10:51;;;;;;;22.43;5.70;;;5.80;75.80;;;;;;5049518;28;20053;-75
2021/04/04 00:13:17;;;;;;;22.90;5.87;;;5.80;75.90;;;;;;5048662;28;20032;-75
2021/04/04 00:15:43;;;;;;;23.43;6.93;;;5.80;75.80;;;;;;5050175;28;20044;-76
2021/04/04 00:18:09;;;;;;;28.53;6.60;;;5.70;75.80;;;;;;5049055;28;20052;-75
2021/04/04 00:20:34;;;;;;;22.73;5.97;;;5.70;75.80;;;;;;5049162;28;20074;-75
2021/04/04 00:23:01;;;;;;;19.10;6.17;;;5.70;76.20;;;;;;5048413;28;20479;-75
2021/04/04 00:25:27;;;;;;;21.97;6.20;;;5.70;76.40;;;;;;5032545;28;20067;-75
2021/04/04 00:27:52;;;;;;;20.40;5.67;;;5.70;76.20;;;;;;5050359;28;20053;-75
2021/04/04 00:30:20;;;;;;;26.77;5.27;;;5.70;75.90;;;;;;5048406;28;20033;-75
2021/04/04 00:32:46;;;;;;;25.87;5.63;;;5.70;75.70;;;;;;5050177;28;20024;-75
2021/04/04 00:35:18;;;;;;;19.83;5.27;;;5.60;76.00;;;;;;5048464;28;20029;-75
2021/04/04 00:37:45;;;;;;;17.43;5.13;;;5.60;76.00;;;;;;5050187;28;20025;-75
2021/04/04 00:40:13;;;;;;;18.63;5.20;;;5.60;76.20;;;;;;5049941;28;20032;-75
2021/04/04 00:42:39;;;;;;;21.53;4.70;;;5.60;76.10;;;;;;5050096;28;20041;-75
2021/04/04 00:45:11;;;;;;;21.17;5.63;;;5.50;76.00;;;;;;5048256;28;20052;-78
2021/04/04 00:47:37;;;;;;;16.93;5.17;;;5.50;76.30;;;;;;5050098;28;20081;-75
2021/04/04 00:50:06;;;;;;;18.57;5.03;;;5.50;76.60;;;;;;5048904;28;20299;-75
2021/04/04 00:52:32;;;;;;;20.47;4.93;;;5.60;76.40;;;;;;5049940;28;20025;-75
2021/04/04 00:54:57;;;;;;;16.37;5.37;;;5.50;76.70;;;;;;5049794;28;20447;-75
2021/04/04 00:57:23;;;;;;;20.93;5.33;;;5.60;76.60;;;;;;5047797;28;20100;-74
2021/04/04 00:59:49;;;;;;;19.47;5.37;;;5.60;76.60;;;;;;5049457;28;20040;-74
2021/04/04 01:02:15;;;;;;;22.10;5.30;;;5.70;76.50;;;;;;5047969;28;20025;-75
2021/04/04 01:04:43;;;;;;;24.33;5.63;;;5.80;76.50;;;;;;5049998;28;20044;-75
2021/04/04 01:07:09;;;;;;;19.27;4.77;;;5.80;75.60;;;;;;5049485;28;20028;-78
2021/04/04 01:09:35;;;;;;;18.87;5.53;;;5.90;76.00;;;;;;5050268;28;20021;-75
2021/04/04 01:12:31;;;;;;;20.03;4.60;;;6.00;75.70;;;;;;5048308;28;20029;-76
2021/04/04 01:15:05;;;;;;;20.53;5.33;;;6.10;75.30;;;;;;5049580;28;20092;-74
2021/04/04 01:17:33;;;;;;;19.70;4.93;;;6.30;74.90;;;;;;5047686;28;20017;-74
2021/04/04 01:20:04;;;;;;;17.20;4.97;;;6.40;74.60;;;;;;5049883;28;20025;-74
2021/04/04 01:22:58;;;;;;;18.03;4.57;;;6.50;74.00;;;;;;5048634;28;20017;-75
2021/04/04 01:25:48;;;;;;;16.30;3.80;;;6.60;73.80;;;;;;5044783;28;20143;-73
2021/04/04 01:28:24;;;;;;;22.47;5.07;;;6.60;73.50;;;;;;5048794;28;20120;-74
2021/04/04 01:30:51;;;;;;;18.13;4.60;;;6.70;73.60;;;;;;5049789;28;20461;-74
2021/04/04 01:33:20;;;;;;;20.97;3.93;;;6.80;73.00;;;;;;5050570;28;20053;-74
2021/04/04 01:35:49;;;;;;;20.00;4.57;;;6.80;73.10;;;;;;5053248;28;20037;-73
2021/04/04 01:38:19;;;;;;;16.77;4.63;;;6.80;72.70;;;;;;5052825;28;20480;-73
2021/04/04 01:40:50;;;;;;;21.83;4.63;;;6.80;73.00;;;;;;5052444;28;20083;-74
2021/04/04 01:43:16;;;;;;;18.80;4.23;;;6.90;72.50;;;;;;5051888;28;20485;-74
2021/04/04 01:45:44;;;;;;;18.27;4.63;;;6.90;72.50;;;;;;5052812;28;20550;-74
2021/04/04 01:48:13;;;;;;;14.47;4.30;;;6.90;72.60;;;;;;5053334;28;20049;-74
2021/04/04 01:50:43;;;;;;;20.13;5.03;;;6.90;72.20;;;;;;5053062;28;20116;-74
2021/04/04 01:53:11;;;;;;;20.60;4.67;;;6.90;72.30;;;;;;5053336;28;20068;-74
2021/04/04 01:55:38;;;;;;;24.13;5.63;;;6.90;72.40;;;;;;5052908;28;20682;-74
2021/04/04 01:58:08;;;;;;;19.97;5.23;;;6.90;72.30;;;;;;5053717;28;20036;-74
2021/04/04 02:00:34;;;;;;;23.57;4.63;;;6.90;71.80;;;;;;5052775;28;20024;-74
2021/04/04 02:03:01;;;;;;;16.10;4.70;;;6.90;72.10;;;;;;5053070;28;20507;-73
2021/04/04 02:05:28;;;;;;;19.07;4.77;;;6.80;72.00;;;;;;5052503;28;20480;-74
2021/04/04 02:07:54;;;;;;;20.67;4.57;;;6.90;72.70;;;;;;5052008;28;20029;-73
2021/04/04 02:10:26;;;;;;;22.67;4.83;;;6.90;72.50;;;;;;5052228;28;20056;-75
2021/04/04 02:12:53;;;;;;;17.37;4.20;;;6.90;72.30;;;;;;5052616;28;20040;-75
2021/04/04 02:15:21;;;;;;;20.57;4.10;;;6.90;72.10;;;;;;5052435;28;20036;-75
2021/04/04 02:17:49;;;;;;;18.83;4.53;;;6.90;72.10;;;;;;5051534;28;20456;-75
2021/04/04 02:20:19;;;;;;;18.93;4.00;;;7.00;72.50;;;;;;5053064;28;20159;-79
2021/04/04 02:22:46;;;;;;;16.77;4.00;;;7.10;72.60;;;;;;5052432;28;20036;-75
2021/04/04 02:25:14;;;;;;;19.13;4.17;;;7.20;72.10;;;;;;5051748;28;20504;-75
2021/04/04 02:27:44;;;;;;;18.00;4.07;;;7.20;71.70;;;;;;5052846;28;20500;-74
2021/04/04 02:30:12;;;;;;;18.17;4.37;;;7.10;71.00;;;;;;5052103;28;20491;-75
2021/04/04 02:32:43;;;;;;;17.10;4.60;;;7.10;71.30;;;;;;5051747;28;20094;-75
2021/04/04 02:35:10;;;;;;;20.30;4.17;;;7.10;71.90;;;;;;5051789;28;20028;-75
2021/04/04 02:37:38;;;;;;;18.70;4.13;;;7.10;71.90;;;;;;5051691;28;20028;-75
2021/04/04 02:40:06;;;;;;;22.70;4.63;;;7.20;71.80;;;;;;5053756;28;20346;-75
2021/04/04 02:42:33;;;;;;;16.23;3.97;;;7.20;71.90;;;;;;5056261;28;20083;-75
2021/04/04 02:45:01;;;;;;;14.60;4.07;;;7.20;71.70;;;;;;5051436;28;20044;-74
2021/04/04 02:47:42;;;;;;;20.77;4.57;;;7.10;71.10;;;;;;5051565;28;20051;-74
2021/04/04 02:50:11;;;;;;;19.73;4.63;;;7.00;71.60;;;;;;5050863;28;20021;-74
2021/04/04 02:52:39;;;;;;;17.67;4.20;;;7.10;72.00;;;;;;5051426;28;20515;-74
2021/04/04 02:55:08;;;;;;;20.13;4.47;;;7.10;72.00;;;;;;5051265;28;20033;-74
2021/04/04 02:57:35;;;;;;;16.50;4.23;;;7.20;71.80;;;;;;5050240;28;20033;-74
2021/04/04 03:00:08;;;;;;;14.80;4.57;;;7.20;71.80;;;;;;5051260;28;20021;-74
2021/04/04 03:02:36;;;;;;;18.87;4.80;;;7.20;72.20;;;;;;5031484;28;20025;-74
2021/04/04 03:05:06;;;;;;;12.60;4.50;;;7.30;72.00;;;;;;5032261;28;20049;-75
2021/04/04 03:07:34;;;;;;;16.90;4.30;;;7.30;71.90;;;;;;5031371;28;20064;-74
2021/04/04 03:10:02;;;;;;;17.57;4.17;;;7.20;71.60;;;;;;5041165;28;20036;-74
2021/04/04 03:12:28;;;;;;;16.60;3.83;;;7.20;71.40;;;;;;5051306;28;20029;-75
2021/04/04 03:14:58;;;;;;;16.37;4.10;;;7.20;71.30;;;;;;5052162;28;20035;-75
2021/04/04 03:17:25;;;;;;;15.63;3.87;;;7.20;70.80;;;;;;5050374;28;20032;-77
2021/04/04 03:19:52;;;;;;;17.73;3.83;;;7.20;71.00;;;;;;5051830;28;20114;-74
2021/04/04 03:22:20;;;;;;;13.43;3.50;;;7.20;71.40;;;;;;5042248;28;20029;-75
2021/04/04 03:24:47;;;;;;;18.30;3.57;;;7.20;70.90;;;;;;5051097;28;20025;-75
2021/04/04 03:27:13;;;;;;;20.87;3.90;;;7.20;71.00;;;;;;5050439;28;20021;-76
2021/04/04 03:29:40;;;;;;;17.93;4.27;;;7.30;71.40;;;;;;5050882;28;20029;-75
2021/04/04 03:32:07;;;;;;;16.07;3.57;;;7.30;71.10;;;;;;5051659;28;20083;-75
2021/04/04 03:34:35;;;;;;;14.53;3.40;;;7.40;71.30;;;;;;5050952;28;20033;-75
2021/04/04 03:37:01;;;;;;;14.37;3.13;;;7.40;71.10;;;;;;5051278;28;20033;-75
2021/04/04 03:39:27;;;;;;;13.33;2.70;;;7.50;70.30;;;;;;5049762;28;20021;-78
2021/04/04 03:41:55;;;;;;;22.97;3.43;;;7.50;70.70;;;;;;5051203;28;20029;-75
2021/04/04 03:44:22;;;;;;;11.93;3.20;;;7.50;70.70;;;;;;5051310;28;20025;-75
2021/04/04 03:46:49;;;;;;;17.83;3.50;;;7.50;70.30;;;;;;5050284;28;20118;-75
2021/04/04 03:49:17;;;;;;;14.47;2.90;;;7.60;70.60;;;;;;5050383;28;20491;-75
2021/04/04 03:51:43;;;;;;;17.37;3.23;;;7.50;70.40;;;;;;5050190;28;20029;-76
2021/04/04 03:54:14;;;;;;;13.00;3.00;;;7.60;70.30;;;;;;5051518;28;20036;-74
2021/04/04 03:56:44;;;;;;;18.87;2.70;;;7.70;70.70;;;;;;5050309;28;20064;-74
2021/04/04 03:59:11;;;;;;;11.00;2.53;;;7.70;70.60;;;;;;5051541;28;20445;-74
2021/04/04 04:01:44;;;;;;;13.80;2.97;;;7.80;70.00;;;;;;5050456;28;20048;-74
2021/04/04 04:04:10;;;;;;;;;;;7.70;69.70;;;;;;5051670;28;20071;-74
2021/04/04 04:06:40;;;;;;;14.50;3.17;;;7.70;69.20;;;;;;5048321;28;19920;-74
2021/04/04 04:09:12;;;;;;;14.70;2.60;;;7.60;69.40;;;;;;5050797;28;20025;-76
2021/04/04 04:11:41;;;;;;;13.32;2.70;;;7.70;70.20;;;;;;5048670;28;20025;-74
2021/04/04 04:14:10;;;;;;;13.17;2.83;;;7.70;69.40;;;;;;5032955;28;20051;-75
2021/04/04 04:16:36;;;;;;;12.53;2.87;;;7.70;70.10;;;;;;5049636;28;20449;-74
2021/04/04 04:19:03;;;;;;;13.97;2.93;;;7.70;70.20;;;;;;5049433;28;20381;-74
2021/04/04 04:21:32;;;;;;;11.17;2.70;;;7.70;70.30;;;;;;5050222;28;20383;-75
2021/04/04 04:24:00;;;;;;;17.87;2.83;;;7.80;70.10;;;;;;5050423;28;20032;-75
2021/04/04 04:26:27;;;;;;;16.30;2.90;;;7.90;70.00;;;;;;5049321;28;20075;-75
2021/04/04 04:28:54;;;;;;;13.63;2.73;;;7.90;69.80;;;;;;5049759;28;20024;-75
2021/04/04 04:31:26;;;;;;;12.93;2.97;;;7.90;69.80;;;;;;5048707;28;20563;-75
2021/04/04 04:33:54;;;;;;;17.13;3.13;;;7.80;69.10;;;;;;5049820;28;20158;-76
2021/04/04 04:36:22;;;;;;;16.30;2.80;;;7.80;69.30;;;;;;5050112;28;20086;-76
2021/04/04 04:38:50;;;;;;;13.40;2.87;;;7.80;69.70;;;;;;5048216;28;20484;-76
2021/04/04 04:41:16;;;;;;;18.37;3.27;;;7.80;69.60;;;;;;5049275;28;20578;-76
2021/04/04 04:43:47;;;;;;;16.57;2.80;;;7.90;69.50;;;;;;5048358;28;20481;-76
2021/04/04 04:46:17;;;;;;;11.73;2.70;;;7.70;68.90;;;;;;5048954;28;20029;-75
2021/04/04 04:48:43;;;;;;;9.97;2.67;;;7.70;69.20;;;;;;5050240;28;20033;-75
2021/04/04 04:51:10;;;;;;;15.03;2.60;;;7.80;70.00;;;;;;5048925;28;20389;-75
2021/04/04 04:53:37;;;;;;;12.93;2.13;;;7.80;69.80;;;;;;5048808;28;20497;-78
2021/04/04 04:56:03;;;;;;;14.87;2.80;;;7.90;69.90;;;;;;5032159;28;20496;-75
2021/04/04 04:58:30;;;;;;;16.03;2.67;;;8.00;69.50;;;;;;5048618;28;20052;-75
2021/04/04 05:01:02;;;;;;;12.73;2.60;;;7.90;69.20;;;;;;5047811;28;20645;-75
2021/04/04 05:03:28;;;;;;;10.93;2.72;;;8.00;69.40;;;;;;5050201;28;20102;-75
2021/04/04 05:06:00;;;;;;;15.23;2.60;;;7.90;69.10;;;;;;5049276;28;20481;-75
2021/04/04 05:08:26;;;;;;;10.27;2.38;;;7.90;69.20;;;;;;5048347;28;20028;-74
2021/04/04 05:10:53;;;;;;;10.03;2.80;;;7.80;68.60;;;;;;5049566;28;20453;-74
2021/04/04 05:13:19;;;;;;;10.87;2.93;;;7.80;68.70;;;;;;5049591;28;20029;-76
2021/04/04 05:15:47;;;;;;;14.23;2.80;;;7.80;69.50;;;;;;5047900;28;20041;-75
2021/04/04 05:18:13;;;;;;;14.17;2.43;;;7.90;69.80;;;;;;5049779;28;20021;-74
2021/04/04 05:20:39;;;;;;;11.47;2.40;;;7.90;69.40;;;;;;5047876;28;20396;-79
2021/04/04 05:23:05;;;;;;;12.07;2.60;;;8.00;69.40;;;;;;5048686;28;20037;-75
2021/04/04 05:25:32;;;;;;;15.70;2.43;;;8.00;69.30;;;;;;5049553;28;20108;-75
2021/04/04 05:27:58;;;;;;;10.37;2.73;;;8.00;69.00;;;;;;5031211;28;20037;-75
2021/04/04 05:30:26;;;;;;;10.53;1.97;;;8.00;68.60;;;;;;5048437;28;20033;-75
2021/04/04 05:32:52;;;;;;;16.50;2.83;;;8.00;68.30;;;;;;5048549;28;20035;-75
2021/04/04 05:35:17;;;;;;;12.53;2.93;;;7.90;68.10;;;;;;5049909;28;20037;-76
2021/04/04 05:37:44;;;;;;;14.13;2.43;;;7.90;68.30;;;;;;5047749;28;20033;-78
2021/04/04 05:40:24;;;;;;;18.20;2.70;;;7.90;68.70;;;;;;5048539;28;20029;-75
2021/04/04 05:42:55;;;;;;;12.70;2.77;;;8.00;69.00;;;;;;5048744;28;20041;-74
2021/04/04 05:45:47;;;;;;;13.13;2.50;;;8.00;68.30;;;;;;5049517;28;20044;-75
2021/04/04 05:48:16;;;;;;;11.00;2.33;;;8.00;68.60;;;;;;5039289;28;20045;-75
2021/04/04 05:50:55;;;;;;;12.33;2.80;;;8.00;68.60;;;;;;5049821;28;20079;-75
2021/04/04 05:53:39;;;;;;;13.83;2.67;;;8.10;68.90;;;;;;5049253;28;20025;-73
2021/04/04 05:56:22;;;;;;;11.73;2.40;;;8.10;68.20;;;;;;5048771;28;20041;-73
2021/04/04 05:59:06;;;;;;;13.55;2.25;;;8.10;68.50;;;;;;5047424;28;20564;-75
2021/04/04 06:01:32;;;;;;;16.57;2.87;;;8.10;68.30;;;;;;5049596;28;20040;-75
2021/04/04 06:04:28;;;;;;;13.53;2.77;;;8.20;68.00;;;;;;5048922;28;20033;-77
2021/04/04 06:07:09;;;;;;;9.80;2.57;;;8.00;67.60;;;;;;5049083;28;20036;-75
2021/04/04 06:09:42;;;;;;;7.63;2.40;;;8.00;68.00;;;;;;5048499;28;20031;-75
2021/04/04 06:12:45;;;;;;;10.73;3.10;;;8.10;68.40;;;;;;5049177;28;20029;-74
2021/04/04 06:15:23;;;;;;;14.32;2.78;;;8.10;67.60;;;;;;5049147;28;20048;-75
2021/04/04 06:18:06;;;;;;;7.67;2.67;;;8.10;67.40;;;;;;5049179;28;20032;-78
2021/04/04 06:20:34;;;;;;;;;;;8.10;67.50;;;;;;5051125;28;20128;-75
2021/04/04 06:23:07;;;;;;;12.23;2.10;;;8.20;68.00;;;;;;5037162;28;19917;-74
2021/04/04 06:25:47;;;;;;;11.33;1.77;;;8.20;67.90;;;;;;5051668;28;20439;-74
2021/04/04 06:28:26;;;;;;;11.77;2.37;;;8.20;67.80;;;;;;5050726;28;20082;-74
2021/04/04 06:31:23;;;;;;;12.03;2.67;;;8.30;67.90;;;;;;5050921;28;20029;-77
2021/04/04 06:33:57;;;;;;;12.77;2.10;;;8.30;67.00;;;;;;5051875;28;20031;-78
2021/04/04 06:36:38;;;;;;;13.47;2.60;;;8.40;67.20;;;;;;5056711;28;20028;-74
2021/04/04 06:39:11;;;;;;;10.87;2.10;;;8.40;66.90;;;;;;5051961;28;20042;-74
2021/04/04 06:41:48;;;;;;;10.63;2.23;;;8.40;67.30;;;;;;5052571;28;20037;-74
2021/04/04 06:44:20;;;;;;;9.03;1.93;;;8.50;67.50;;;;;;5051754;28;20532;-74
2021/04/04 06:46:58;;;;;;;9.80;2.27;;;8.50;67.20;;;;;;5051916;28;20052;-74
2021/04/04 06:49:44;;;;;;;13.30;2.20;;;8.60;66.80;;;;;;5052747;28;20021;-74
2021/04/04 06:52:33;;;;;;;11.97;2.00;;;8.60;66.10;;;;;;5051423;28;20025;-75
2021/04/04 06:55:17;;;;;;;11.17;2.20;;;8.60;66.00;;;;;;5050234;28;20056;-74
2021/04/04 06:57:45;;;;;;;;;;;8.60;66.20;;;;;;5053081;28;20021;-75
2021/04/04 07:00:14;;;;;;;10.97;2.27;;;8.60;66.10;;;;;;5051202;28;19916;-75
2021/04/04 07:02:45;;;;;;;11.37;2.10;;;8.60;66.90;;;;;;5051974;28;20037;-74
2021/04/04 07:05:17;;;;;;;8.57;1.80;;;8.70;66.50;;;;;;5050727;28;20036;-74
2021/04/04 07:08:02;;;;;;;10.40;2.20;;;8.80;66.60;;;;;;5051653;28;20036;-74
2021/04/04 07:10:36;;;;;;;11.33;2.47;;;8.80;66.20;;;;;;5073926;28;20521;-74
2021/04/04 07:13:26;;;;;;;17.70;2.93;;;8.80;65.70;;;;;;5048360;28;20033;-76
2021/04/04 07:16:06;;;;;;;10.67;2.37;;;8.80;66.00;;;;;;5050728;28;20048;-77
2021/04/04 07:19:09;;;;;;;11.90;2.37;;;8.80;65.50;;;;;;5050497;28;20504;-75
2021/04/04 07:22:12;;;;;;;13.10;2.45;;;8.90;65.60;;;;;;5051405;28;20033;-75
2021/04/04 07:25:04;;;;;;;9.45;2.60;;;8.90;65.60;;;;;;5050395;28;20040;-75
2021/04/04 07:28:10;;;;;;;10.33;2.47;;;8.90;65.10;;;;;;5051491;28;20017;-75
2021/04/04 07:30:50;;;;;;;17.67;3.60;;;9.00;65.00;;;;;;5051307;28;20029;-75
2021/04/04 07:33:53;;;;;;;9.70;3.73;;;9.00;65.30;;;;;;5050823;28;20507;-75
2021/04/04 07:36:44;;;;;;;10.13;3.95;;;9.10;65.00;;;;;;5050947;28;20198;-75
2021/04/04 07:39:32;;;;;;;11.07;4.43;;;9.20;64.60;;;;;;5051233;28;20017;-74
2021/04/04 07:42:07;;;;;;;15.17;3.80;;;9.20;64.90;;;;;;5050912;28;20073;-78
2021/04/04 07:44:41;;;;;;;16.60;5.20;;;9.20;64.10;;;;;;5051406;28;20036;-74
2021/04/04 07:47:32;;;;;;;12.60;5.53;;;9.30;64.70;;;;;;5049142;28;20121;-75
2021/04/04 07:50:04;;;;;;;19.20;6.60;;;9.30;64.10;;;;;;5050911;28;20025;-78
2021/04/04 07:52:50;;;;;;;16.38;7.80;;;9.30;64.20;;;;;;5051332;28;20078;-75
2021/04/04 07:55:30;;;;;;;17.53;6.17;;;9.40;64.30;;;;;;5046220;28;20840;-73
2021/04/04 07:58:17;;;;;;;22.73;7.83;;;9.40;64.10;;;;;;5050871;28;20100;-74
2021/04/04 08:00:56;;;;;;;21.00;7.00;;;9.50;64.70;;;;;;5049807;28;20424;-74
2021/04/04 08:03:28;;;;;;;23.23;9.83;;;9.60;64.60;;;;;;5050198;28;20029;-75
2021/04/04 08:06:04;;;;;;;27.92;10.27;;;9.60;65.10;;;;;;5051417;28;20033;-76
2021/04/04 08:08:36;;;;;;;18.50;7.20;;;9.70;65.10;;;;;;5050994;28;20047;-74
2021/04/04 08:11:13;;;;;;;26.08;9.88;;;9.80;64.50;;;;;;5069040;28;20078;-79
2021/04/04 08:13:46;;;;;;;32.97;11.63;;;9.80;64.70;;;;;;5052260;28;20051;-74
2021/04/04 08:16:14;;;;;;;;;;;9.80;65.20;;;;;;5046735;28;20056;-76
2021/04/04 08:18:40;;;;;;;16.60;6.27;;;9.80;63.80;;;;;;5047358;28;20348;-74
2021/04/04 08:21:20;;;;;;;20.63;6.80;;;9.70;63.50;;;;;;5049250;28;20031;-74
2021/04/04 08:23:47;;;;;;;17.27;7.23;;;9.70;63.60;;;;;;5049460;28;20468;-73
2021/04/04 08:26:28;;;;;;;22.33;8.27;;;9.80;63.70;;;;;;5047596;28;20045;-74
2021/04/04 08:29:08;;;;;;;18.70;7.50;;;9.90;63.80;;;;;;5046557;28;20495;-74
2021/04/04 08:31:45;;;;;;;17.70;7.87;;;10.00;63.20;;;;;;5047291;28;20031;-74
2021/04/04 08:34:19;;;;;;;24.40;8.47;;;10.10;63.50;;;;;;5049320;28;20025;-75
2021/04/04 08:37:02;;;;;;;33.10;11.00;;;10.10;63.40;;;;;;5049808;28;20052;-73
2021/04/04 08:39:30;;;;;;;;;;;10.10;63.00;;;;;;5049313;28;20156;-73
2021/04/04 08:41:58;;;;;;;23.83;7.93;;;10.20;66.00;;;;;;5048827;28;19916;-74
2021/04/04 08:44:42;;;;;;;19.33;7.20;;;10.30;63.30;;;;;;5046088;28;20703;-73
2021/04/04 08:47:27;;;;;;;;;;;10.30;62.80;;;;;;5046962;28;20135;-79
2021/04/04 08:49:53;;;;;;;20.57;7.33;;;10.10;63.30;;;;;;5048261;28;20049;-74
2021/04/04 08:52:38;;;;;;;14.40;4.17;;;10.10;62.60;;;;;;5048900;28;20025;-74
2021/04/04 08:55:05;;;;;;;19.60;8.33;;;9.90;61.90;;;;;;5049473;28;20020;-74
2021/04/04 08:57:34;;;;;;;20.63;8.13;;;9.80;62.70;;;;;;5048672;28;20085;-74
2021/04/04 09:00:05;;;;;;;24.13;9.27;;;10.00;63.30;;;;;;5049621;28;20029;-74
2021/04/04 09:02:38;;;;;;;17.60;7.73;;;10.00;62.80;;;;;;5048675;28;20040;-73
2021/04/04 09:05:06;;;;;;;19.23;7.47;;;9.90;62.60;;;;;;5048636;28;20114;-74
2021/04/04 09:07:42;;;;;;;24.33;9.23;;;10.00;62.60;;;;;;5045703;28;20079;-74
2021/04/04 09:10:10;;;;;;;25.37;13.23;;;10.00;62.60;;;;;;5048928;28;20542;-78
2021/04/04 09:12:38;;;;;;;24.27;10.87;;;10.10;63.00;;;;;;5047021;28;20048;-74
2021/04/04 09:15:13;;;;;;;24.67;11.43;;;10.30;63.00;;;;;;5049384;28;20155;-73
2021/04/04 09:17:51;;;;;;;20.30;10.20;;;10.40;62.90;;;;;;5049108;28;20032;-74
2021/04/04 09:20:18;;;;;;;25.03;12.03;;;10.40;62.90;;;;;;5046350;28;20106;-74
2021/04/04 09:22:49;;;;;;;22.47;12.07;;;10.40;62.00;;;;;;5047445;28;20025;-74
2021/04/04 09:25:16;;;;;;;17.27;8.70;;;10.40;62.50;;;;;;5039012;28;20033;-75
2021/04/04 09:27:43;;;;;;;30.47;13.73;;;10.40;62.30;;;;;;5044926;28;20031;-74
2021/04/04 09:30:34;;;;;;;27.40;14.30;;;10.40;62.60;;;;;;5045801;28;20473;-77
2021/04/04 09:33:04;;;;;;;32.60;17.13;;;10.50;62.90;;;;;;5034603;28;20060;-75
2021/04/04 09:35:30;;;;;;;31.57;19.13;;;10.50;63.00;;;;;;5047332;28;20037;-75
2021/04/04 09:38:05;;;;;;;21.03;9.63;;;10.50;63.40;;;;;;5030433;28;20030;-75
2021/04/04 09:40:32;;;;;;;32.97;17.47;;;10.50;61.90;;;;;;5030139;28;20164;-75
2021/04/04 09:43:13;;;;;;;22.90;9.17;;;10.50;62.80;;;;;;5029979;28;20030;-75
2021/04/04 09:45:41;;;;;;;31.23;18.37;;;10.50;61.90;;;;;;5044710;28;20041;-75
2021/04/04 09:48:20;;;;;;;30.20;17.93;;;10.50;62.80;;;;;;5048607;28;20060;-74
2021/04/04 09:50:47;;;;;;;28.87;16.07;;;10.60;63.10;;;;;;5049900;28;20029;-74
2021/04/04 09:53:13;;;;;;;19.47;9.83;;;10.70;62.50;;;;;;5048941;28;20018;-79
2021/04/04 09:55:45;;;;;;;25.10;11.43;;;10.70;61.30;;;;;;5052557;28;20060;-73
2021/04/04 09:58:11;;;;;;;23.60;12.77;;;10.70;61.30;;;;;;5053546;28;20163;-74
2021/04/04 10:00:39;;;;;;;22.10;11.00;;;10.80;61.30;;;;;;5039979;28;20029;-76
2021/04/04 10:03:16;;;;;;;26.07;13.33;;;10.80;60.80;;;;;;5033468;28;20030;-74
2021/04/04 10:05:47;;;;;;;22.97;12.30;;;10.90;61.10;;;;;;5034563;28;20037;-73
2021/04/04 10:08:16;;;;;;;20.57;10.07;;;11.10;60.50;;;;;;5032784;28;20040;-75
2021/04/04 10:10:44;;;;;;;22.20;11.10;;;11.20;60.20;;;;;;5033839;28;20056;-76
2021/04/04 10:13:10;;;;;;;17.07;7.00;;;11.30;59.80;;;;;;5033292;28;20132;-75
2021/04/04 10:15:47;;;;;;;21.87;10.30;;;11.30;59.20;;;;;;5031605;28;20758;-76
2021/04/04 10:18:14;;;;;;;21.43;9.23;;;11.20;59.30;;;;;;5033289;28;20473;-76
2021/04/04 10:20:44;;;;;;;11.00;5.70;;;11.10;59.00;;;;;;5048539;28;20408;-75
2021/04/04 10:23:10;;;;;;;13.53;6.53;;;11.10;58.80;;;;;;5051070;28;20044;-74
2021/04/04 10:25:37;;;;;;;16.10;8.00;;;11.10;58.70;;;;;;5053756;28;20082;-76
2021/04/04 10:28:09;;;;;;;15.53;5.30;;;11.10;59.20;;;;;;5055326;28;20021;-74
2021/04/04 10:30:37;;;;;;;24.20;11.47;;;11.20;58.70;;;;;;5036229;28;20053;-75
2021/04/04 10:33:38;;;;;;;26.00;15.20;;;11.20;59.50;;;;;;5032838;28;20112;-77
2021/04/04 10:36:16;;;;;;;17.67;9.70;;;11.60;61.70;;;;;;5031582;28;20053;-75
2021/04/04 10:38:42;;;;;;;15.83;4.47;;;11.90;60.10;;;;;;5039012;28;20029;-75
2021/04/04 10:41:08;;;;;;;15.13;6.67;;;11.80;57.70;;;;;;5044228;28;20055;-76
2021/04/04 10:43:38;;;;;;;16.53;4.33;;;11.70;57.20;;;;;;5049739;28;20381;-75
2021/04/04 10:46:12;;;;;;;13.53;5.43;;;11.70;57.40;;;;;;5051136;28;20045;-75
2021/04/04 10:48:40;;;;;;;16.03;8.07;;;11.70;57.10;;;;;;5044820;28;20127;-75
2021/04/04 10:51:08;;;;;;;10.77;4.60;;;11.70;57.80;;;;;;5051676;28;20033;-74
2021/04/04 10:53:35;;;;;;;10.67;4.00;;;11.90;57.10;;;;;;5042881;28;20386;-74
2021/04/04 10:56:02;;;;;;;9.63;2.77;;;11.80;56.50;;;;;;5038147;28;20025;-75
2021/04/04 10:58:28;;;;;;;11.67;4.40;;;11.80;55.70;;;;;;5043943;28;20028;-76
2021/04/04 11:00:57;;;;;;;15.77;6.83;;;11.80;55.60;;;;;;5052223;28;20033;-74
2021/04/04 11:03:23;;;;;;;15.10;5.10;;;11.90;56.30;;;;;;5051949;28;20090;-78
2021/04/04 11:05:49;;;;;;;14.37;6.10;;;12.00;55.80;;;;;;5049143;28;20048;-72
2021/04/04 11:08:16;;;;;;;13.87;6.53;;;12.10;55.60;;;;;;5050254;28;20218;-73
2021/04/04 11:10:42;;;;;;;14.13;5.73;;;12.30;55.70;;;;;;5029804;28;20470;-73
2021/04/04 11:13:08;;;;;;;18.53;9.80;;;12.40;54.80;;;;;;5032188;28;20025;-74
2021/04/04 11:15:37;;;;;;;15.40;7.40;;;12.50;55.50;;;;;;5031297;28;20182;-75
2021/04/04 11:18:13;;;;;;;17.70;7.10;;;12.60;54.60;;;;;;5039841;28;20476;-75
2021/04/04 11:20:45;;;;;;;13.00;5.57;;;12.70;53.80;;;;;;5055332;28;20075;-74
2021/04/04 11:23:15;;;;;;;14.13;7.47;;;12.80;53.30;;;;;;5051223;28;20552;-75
2021/04/04 11:25:41;;;;;;;19.37;10.40;;;12.80;52.80;;;;;;5047197;28;20114;-75
2021/04/04 11:28:17;;;;;;;17.07;9.60;;;12.90;53.50;;;;;;5039929;28;20049;-74
2021/04/04 11:30:44;;;;;;;23.13;12.20;;;12.90;52.90;;;;;;5047455;28;20047;-74
2021/04/04 11:33:16;;;;;;;37.13;22.53;;;13.10;53.40;;;;;;5042400;28;20473;-74
2021/04/04 11:36:03;;;;;;;18.47;9.77;;;13.30;55.00;;;;;;5044622;28;20029;-74
2021/04/04 11:38:32;;;;;;;14.30;6.33;;;13.50;52.50;;;;;;5037409;28;20030;-77
2021/04/04 11:41:21;;;;;;;18.77;10.83;;;13.40;50.70;;;;;;5034465;28;20041;-75
2021/04/04 11:43:53;;;;;;;13.37;5.80;;;13.40;51.20;;;;;;5029659;28;20033;-75
2021/04/04 11:46:48;;;;;;;19.03;9.17;;;13.40;50.50;;;;;;5020023;28;20033;-75
2021/04/04 11:49:35;;;;;;;21.30;10.90;;;13.40;51.30;;;;;;5043207;28;20053;-74
2021/04/04 11:52:21;;;;;;;13.60;5.63;;;13.40;51.20;;;;;;5040557;28;20036;-74
2021/04/04 11:54:50;;;;;;;12.53;6.93;;;13.50;50.20;;;;;;5034112;28;20082;-74
2021/04/04 11:57:20;;;;;;;16.23;9.63;;;13.50;50.60;;;;;;5039759;28;20430;-75
2021/04/04 11:59:48;;;;;;;18.03;9.73;;;13.60;51.10;;;;;;5047768;28;20133;-75
2021/04/04 12:02:17;;;;;;;13.47;6.13;;;13.50;50.70;;;;;;5048426;28;20119;-75
2021/04/04 12:04:47;;;;;;;18.27;8.23;;;13.60;50.00;;;;;;5049985;28;20028;-75
2021/04/04 12:07:15;;;;;;;24.50;14.68;;;13.80;49.90;;;;;;5044303;28;20035;-76
2021/04/04 12:09:46;;;;;;;24.60;15.40;;;14.00;50.60;;;;;;5045648;28;20526;-76
2021/04/04 12:12:14;;;;;;;16.92;9.43;;;14.10;50.50;;;;;;5033736;28;20033;-74
2021/04/04 12:14:52;;;;;;;20.88;10.90;;;14.10;49.40;;;;;;5029933;28;20052;-75
2021/04/04 12:17:23;;;;;;;18.20;8.77;;;14.30;49.50;;;;;;5042527;28;20040;-75
2021/04/04 12:19:49;;;;;;;20.60;8.90;;;14.40;48.30;;;;;;5038604;28;20036;-73
2021/04/04 12:22:17;;;;;;;17.30;9.68;;;14.40;48.50;;;;;;5032743;28;20024;-74
2021/04/04 12:24:46;;;;;;;17.85;8.27;;;14.50;48.60;;;;;;5033051;28;20246;-73
2021/04/04 12:27:14;;;;;;;20.25;11.65;;;14.60;47.70;;;;;;5033057;28;20045;-74
2021/04/04 12:29:41;;;;;;;20.38;11.50;;;14.80;47.90;;;;;;5028604;28;20021;-73
2021/04/04 12:32:08;;;;;;;14.65;6.85;;;14.90;47.80;;;;;;5031514;28;20041;-75
2021/04/04 12:34:41;;;;;;;28.50;13.25;;;14.90;47.10;;;;;;5030896;28;20028;-80
2021/04/04 12:37:16;;;;;;;20.13;9.52;;;14.90;47.90;;;;;;5030090;28;20384;-75
2021/04/04 12:39:42;;;;;;;38.38;13.77;;;15.00;48.60;;;;;;5029903;28;20049;-75
2021/04/04 12:42:13;;;;;;;21.05;10.38;;;14.90;48.00;;;;;;5030591;28;20103;-73
2021/04/04 12:44:42;;;;;;;22.48;10.18;;;15.00;47.80;;;;;;5029021;28;20021;-79
2021/04/04 12:47:14;;;;;;;16.42;9.52;;;15.00;47.50;;;;;;5044523;28;20060;-77
2021/04/04 12:49:42;;;;;;;21.35;11.65;;;15.00;47.60;;;;;;5037486;28;20417;-78
2021/04/04 12:52:09;;;;;;;17.70;7.57;;;15.10;47.80;;;;;;5044884;28;20029;-74
2021/04/04 12:54:35;;;;;;;12.02;6.70;;;15.00;47.00;;;;;;5031255;28;20029;-74
2021/04/04 12:57:01;;;;;;;15.82;8.32;;;15.00;46.00;;;;;;5031261;28;20029;-76
2021/04/04 12:59:27;;;;;;;18.92;10.57;;;15.00;46.80;;;;;;5029332;28;20029;-77
2021/04/04 13:01:54;;;;;;;15.75;9.13;;;15.10;46.50;;;;;;5030291;28;20087;-73
2021/04/04 13:04:25;;;;;;;18.02;8.05;;;15.10;46.50;;;;;;5046550;28;20385;-74
2021/04/04 13:06:52;;;;;;;20.00;12.70;;;15.20;45.90;;;;;;5047719;28;20416;-74